createdAt,value
2022-10-29T00:00:08.265Z,-3.24
2022-10-29T00:05:11.433Z,-3.35
2022-10-29T00:10:14.199Z,-3.54
2022-10-29T00:15:16.962Z,-3.53
2022-10-29T00:20:22.127Z,-3.67
2022-10-29T00:25:27.780Z,-3.76
2022-10-29T00:30:30.567Z,-3.67
2022-10-29T00:35:33.212Z,-3.66
2022-10-29T00:40:38.985Z,-3.68
2022-10-29T00:46:05.766Z,-3.71
2022-10-29T00:51:10.444Z,-3.90
2022-10-29T00:56:13.579Z,-3.62
2022-10-29T01:01:16.684Z,-3.68
2022-10-29T01:06:19.769Z,-3.63
2022-10-29T01:11:34.716Z,-3.65
2022-10-29T01:16:56.607Z,-3.62
2022-10-29T01:22:20.230Z,-3.63
2022-10-29T01:27:40.441Z,-3.70
2022-10-29T01:32:54.135Z,-3.59
2022-10-29T01:38:25.957Z,-3.52
2022-10-29T01:43:41.988Z,-3.45
2022-10-29T01:48:47.779Z,-3.38
2022-10-29T01:54:15.050Z,-3.38
2022-10-29T01:59:28.796Z,-3.63
2022-10-29T02:05:04.060Z,-3.28
2022-10-29T02:10:12.694Z,-3.25
2022-10-29T02:15:18.356Z,-3.25
2022-10-29T02:20:21.111Z,-3.06
2022-10-29T02:25:24.349Z,-3.01
2022-10-29T02:30:27.168Z,-3.10
2022-10-29T02:35:29.823Z,-3.23
2022-10-29T02:40:32.487Z,-3.04
2022-10-29T02:45:35.127Z,-3.06
2022-10-29T02:50:37.956Z,-3.05
2022-10-29T02:55:40.653Z,-3.13
2022-10-29T03:00:43.256Z,-3.03
2022-10-29T03:05:48.954Z,-3.10
2022-10-29T03:10:52.114Z,-3.13
2022-10-29T03:15:54.803Z,-3.28
2022-10-29T03:20:57.451Z,-3.01
2022-10-29T03:26:00.202Z,-2.97
2022-10-29T03:31:03.298Z,-2.92
2022-10-29T03:36:08.021Z,-2.90
2022-10-29T03:41:11.232Z,-2.96
2022-10-29T03:46:13.979Z,-2.86
2022-10-29T03:51:16.703Z,-2.73
2022-10-29T03:56:19.427Z,-2.70
2022-10-29T04:01:22.220Z,-2.51
2022-10-29T04:06:24.956Z,-2.48
2022-10-29T04:11:27.649Z,-2.56
2022-10-29T04:16:30.337Z,-2.57
2022-10-29T04:32:18.370Z,-2.48
2022-10-29T04:37:21.042Z,-2.45
2022-10-29T04:42:23.750Z,-2.43
2022-10-29T04:47:26.465Z,-2.47
2022-10-29T04:52:29.120Z,-2.49
2022-10-29T04:57:31.855Z,-2.37
2022-10-29T05:02:36.432Z,-2.36
2022-10-29T05:07:39.151Z,-2.25
2022-10-29T05:12:41.827Z,-2.12
2022-10-29T05:17:44.485Z,-2.07
2022-10-29T05:22:47.274Z,-2.06
2022-10-29T05:27:49.921Z,-1.99
2022-10-29T05:32:52.778Z,-1.94
2022-10-29T05:37:57.537Z,-1.81
2022-10-29T05:43:00.789Z,-1.82
2022-10-29T05:48:04.798Z,-1.92
2022-10-29T05:53:11.518Z,-1.88
2022-10-29T05:58:14.559Z,-1.64
2022-10-29T06:03:22.478Z,-1.39
2022-10-29T06:08:25.277Z,-1.37
2022-10-29T06:13:28.034Z,-1.35
2022-10-29T06:18:30.874Z,-1.25
2022-10-29T06:23:35.085Z,-1.28
2022-10-29T06:28:37.784Z,-1.23
2022-10-29T06:33:40.463Z,-1.53
2022-10-29T06:38:43.107Z,-1.30
2022-10-29T06:43:45.819Z,-1.40
2022-10-29T06:48:48.644Z,-1.39
2022-10-29T06:53:51.424Z,-1.46
2022-10-29T06:58:54.120Z,-1.29
2022-10-29T07:03:56.849Z,-1.18
2022-10-29T07:08:59.543Z,-1.12
2022-10-29T07:14:06.368Z,-1.09
2022-10-29T07:19:09.105Z,-1.14
2022-10-29T07:24:11.857Z,-1.10
2022-10-29T07:29:14.512Z,-1.09
2022-10-29T07:34:17.199Z,-1.06
2022-10-29T07:39:19.966Z,-1.05
2022-10-29T07:44:22.714Z,-1.11
2022-10-29T07:49:25.413Z,-1.03
2022-10-29T07:54:28.016Z,-1.13
2022-10-29T07:59:30.771Z,-1.32
2022-10-29T08:04:33.427Z,-1.45
2022-10-29T08:09:36.099Z,-1.54
2022-10-29T08:14:38.767Z,-1.60
2022-10-29T08:19:41.462Z,-1.71
2022-10-29T08:24:44.116Z,-1.75
2022-10-29T08:29:46.859Z,-1.76
2022-10-29T08:34:49.481Z,-1.75
2022-10-29T08:39:52.686Z,-1.81
2022-10-29T08:45:19.474Z,-1.95
2022-10-29T08:50:29.995Z,-1.91
2022-10-29T08:55:37.237Z,-1.81
2022-10-29T09:00:42.838Z,-1.80
2022-10-29T09:06:14.673Z,-1.80
2022-10-29T09:11:34.823Z,-1.88
2022-10-29T09:16:57.125Z,-1.91
2022-10-29T09:22:11.736Z,-2.03
2022-10-29T09:27:18.781Z,-1.96
2022-10-29T09:32:37.748Z,-2.05
2022-10-29T09:37:46.717Z,-2.04
2022-10-29T09:42:49.511Z,-2.09
2022-10-29T09:48:01.017Z,-2.01
2022-10-29T09:53:03.924Z,-2.18
2022-10-29T09:58:07.356Z,-2.06
2022-10-29T10:03:21.417Z,-2.03
2022-10-29T10:08:24.109Z,-2.04
2022-10-29T10:13:32.004Z,-2.13
2022-10-29T10:23:54.780Z,-2.15
2022-10-29T10:29:13.709Z,-2.13
2022-10-29T10:34:20.706Z,-2.14
2022-10-29T10:39:38.075Z,-2.12
2022-10-29T10:44:48.906Z,-2.23
2022-10-29T10:49:51.628Z,-2.14
2022-10-29T10:55:04.188Z,-2.17
2022-10-29T11:00:22.584Z,-2.19
2022-10-29T11:05:37.450Z,-2.25
2022-10-29T11:10:46.022Z,-2.21
2022-10-29T11:15:52.997Z,-2.21
2022-10-29T11:21:11.828Z,-2.22
2022-10-29T11:26:29.380Z,-2.26
2022-10-29T11:31:32.080Z,-2.25
2022-10-29T11:36:48.664Z,-2.34
2022-10-29T11:42:01.628Z,-2.27
2022-10-29T11:47:24.917Z,-2.32
2022-10-29T11:52:35.576Z,-2.24
2022-10-29T11:58:02.324Z,-2.25
2022-10-29T12:03:20.492Z,-2.26
2022-10-29T12:08:45.053Z,-2.30
2022-10-29T12:13:59.754Z,-2.34
2022-10-29T12:19:04.229Z,-2.36
2022-10-29T12:24:11.499Z,-2.34
2022-10-29T12:29:20.729Z,-2.51
2022-10-29T12:34:31.362Z,-2.35
2022-10-29T12:39:38.198Z,-2.28
2022-10-29T12:45:02.080Z,-2.24
2022-10-29T12:50:37.591Z,-2.20
2022-10-29T12:55:42.666Z,-2.24
2022-10-29T13:00:48.065Z,-2.22
2022-10-29T13:05:50.799Z,-2.26
2022-10-29T13:10:54.753Z,-2.22
2022-10-29T13:15:57.614Z,-2.24
2022-10-29T13:21:00.353Z,-2.27
2022-10-29T13:26:07.690Z,-2.22
2022-10-29T13:31:10.289Z,-2.20
2022-10-29T13:36:21.536Z,-2.19
2022-10-29T13:41:43.222Z,-2.24
2022-10-29T13:46:53.316Z,-2.21
2022-10-29T13:52:01.556Z,-2.13
2022-10-29T13:57:13.090Z,-2.11
2022-10-29T14:02:18.513Z,-2.11
2022-10-29T14:07:34.546Z,-2.11
2022-10-29T14:12:38.669Z,-2.12
2022-10-29T14:17:42.212Z,-2.10
2022-10-29T14:22:45.839Z,-2.18
2022-10-29T14:27:48.618Z,-2.03
2022-10-29T14:32:51.497Z,-2.07
2022-10-29T14:37:57.263Z,-2.18
2022-10-29T14:43:00.505Z,-2.15
2022-10-29T14:48:09.974Z,-2.21
2022-10-29T14:53:31.607Z,-2.23
2022-10-29T14:58:35.677Z,-2.15
2022-10-29T15:03:38.472Z,-2.17
2022-10-29T15:08:42.468Z,-2.10
2022-10-29T15:13:46.645Z,-2.12
2022-10-29T15:18:52.128Z,-2.05
2022-10-29T15:24:08.387Z,-2.05
2022-10-29T15:29:12.300Z,-1.98
2022-10-29T15:34:24.771Z,-2.01
2022-10-29T15:39:42.420Z,-2.03
2022-10-29T15:45:03.285Z,-2.17
2022-10-29T15:50:10.236Z,-2.14
2022-10-29T15:55:28.335Z,-2.20
2022-10-29T16:00:31.962Z,-2.09
2022-10-29T16:05:34.784Z,-2.14
2022-10-29T16:10:37.440Z,-2.08
2022-10-29T16:15:43.252Z,-2.03
2022-10-29T16:20:47.212Z,-2.02
2022-10-29T16:25:49.887Z,-2.09
2022-10-29T16:30:58.776Z,-2.09
2022-10-29T16:36:01.467Z,-2.24
2022-10-29T16:41:04.289Z,-2.32
2022-10-29T16:46:07.431Z,-2.37
2022-10-29T16:51:10.095Z,-2.32
2022-10-29T16:56:15.725Z,-2.46
2022-10-29T17:01:18.833Z,-2.38
2022-10-29T17:06:21.593Z,-2.22
2022-10-29T17:11:24.296Z,-2.29
2022-10-29T17:16:26.998Z,-2.37
2022-10-29T17:21:35.267Z,-2.54
2022-10-29T17:26:37.949Z,-2.66
2022-10-29T17:31:40.669Z,-2.81
2022-10-29T17:36:44.826Z,-2.80
2022-10-29T17:41:48.255Z,-2.82
2022-10-29T17:46:51.016Z,-2.89
2022-10-29T17:51:53.922Z,-2.97
2022-10-29T17:56:56.618Z,-2.94
2022-10-29T18:01:59.358Z,-2.86
2022-10-29T18:07:02.110Z,-2.85
2022-10-29T18:12:04.901Z,-2.63
2022-10-29T18:17:07.712Z,-2.70
2022-10-29T18:22:10.520Z,-2.61
2022-10-29T18:27:13.347Z,-2.70
2022-10-29T18:32:16.217Z,-2.84
2022-10-29T18:37:18.873Z,-2.84
2022-10-29T18:42:21.553Z,-2.68
2022-10-29T18:47:24.264Z,-2.48
2022-10-29T18:52:26.955Z,-2.48
2022-10-29T18:57:29.760Z,-2.41
2022-10-29T19:02:32.468Z,-2.61
2022-10-29T19:07:35.329Z,-2.53
2022-10-29T19:12:37.985Z,-2.59
2022-10-29T19:17:40.646Z,-2.42
2022-10-29T19:22:50.968Z,-2.39
2022-10-29T19:27:53.658Z,-2.35
2022-10-29T19:32:56.585Z,-2.27
2022-10-29T19:37:59.630Z,-2.32
2022-10-29T19:43:02.621Z,-2.38
2022-10-29T19:48:05.747Z,-2.35
2022-10-29T19:53:08.555Z,-2.29
2022-10-29T19:58:11.349Z,-2.34
2022-10-29T20:03:15.247Z,-2.35
2022-10-29T20:08:17.935Z,-2.33
2022-10-29T20:13:20.602Z,-2.51
2022-10-29T20:18:23.234Z,-2.42
2022-10-29T20:23:26.002Z,-2.50
2022-10-29T20:28:29.018Z,-2.53
2022-10-29T20:33:31.694Z,-2.35
2022-10-29T20:38:34.454Z,-2.28
2022-10-29T20:43:37.090Z,-2.40
2022-10-29T20:48:39.780Z,-2.34
2022-10-29T20:53:42.472Z,-2.29
2022-10-29T20:58:45.207Z,-2.31
2022-10-29T21:03:50.469Z,-2.36
2022-10-29T21:08:53.288Z,-2.71
2022-10-29T21:13:56.529Z,-3.18
2022-10-29T21:19:01.001Z,-3.28
2022-10-29T21:24:04.028Z,-3.21
2022-10-29T21:29:06.781Z,-2.95
2022-10-29T21:34:09.530Z,-2.72
2022-10-29T21:39:12.261Z,-2.69
2022-10-29T21:44:14.980Z,-2.58
2022-10-29T21:49:17.678Z,-2.48
2022-10-29T21:54:21.956Z,-2.39
2022-10-29T21:59:27.216Z,-2.50
2022-10-29T22:04:29.840Z,-2.43
2022-10-29T22:09:32.637Z,-2.44
2022-10-29T22:14:35.289Z,-2.46
2022-10-29T22:19:40.182Z,-2.51
2022-10-29T22:24:42.824Z,-2.58
2022-10-29T22:29:45.480Z,-2.59
2022-10-29T22:34:48.083Z,-2.49
2022-10-29T22:39:50.716Z,-2.46
2022-10-29T22:44:53.541Z,-2.42
2022-10-29T22:49:56.978Z,-2.43
2022-10-29T22:54:59.601Z,-2.59
2022-10-29T23:00:02.306Z,-2.61
2022-10-29T23:05:07.135Z,-2.73
2022-10-29T23:10:10.167Z,-2.71
2022-10-29T23:15:12.858Z,-2.83
2022-10-29T23:20:15.570Z,-2.84
2022-10-29T23:25:18.227Z,-2.78
2022-10-29T23:30:20.981Z,-2.62
2022-10-29T23:35:23.707Z,-2.66
2022-10-29T23:40:26.419Z,-2.38
2022-10-29T23:45:29.049Z,-2.38
2022-10-29T23:50:31.895Z,-2.40
2022-10-29T23:55:35.379Z,-2.41
